Time;durP1;ratioP1;P1;durP2;ratioP2;P2;SDS_P1;SDS_P2;PMS_P1;PMS_P2;Temp;Humidity;BMP_temperature;BMP_pressure;BME280_temperature;BME280_humidity;BME280_pressure;Samples;Min_cycle;Max_cycle;Signal;HPM_P1;HPM_P2
2022/08/10 00:01:54;;;;;;;10.48;5.03;;;;;;;18.15;66.05;101864.70;5237878;56;1139510;-64
2022/08/10 00:06:59;;;;;;;14.68;4.22;;;;;;;18.07;66.90;101853.80;5236655;56;1138989;-66
2022/08/10 00:12:06;;;;;;;11.57;4.62;;;;;;;18.19;66.62;101866.95;5272576;55;1139073;-65
2022/08/10 00:17:11;;;;;;;11.68;4.75;;;;;;;18.19;66.62;101866.95;5272095;55;1139110;-65
2022/08/10 00:22:16;;;;;;;8.18;4.62;;;;;;;18.33;67.10;101864.41;5241247;56;1139013;-64
2022/08/10 00:27:23;;;;;;;7.80;4.55;;;;;;;18.42;66.85;101864.07;5222020;56;1136959;-65
2022/08/10 00:32:29;;;;;;;8.68;4.62;;;;;;;18.48;66.75;101862.20;5211338;56;1136956;-63
2022/08/10 00:37:34;;;;;;;17.57;7.22;;;;;;;18.35;65.86;101864.25;5211262;56;1136969;-63
2022/08/10 00:42:40;;;;;;;7.52;4.12;;;;;;;18.14;65.83;101867.02;5211388;56;1139039;-63
2022/08/10 00:47:45;;;;;;;9.75;4.62;;;;;;;17.70;65.93;101861.53;5202399;56;1136785;-61
2022/08/10 00:52:51;;;;;;;18.95;7.00;;;;;;;17.16;67.88;101870.06;5252800;55;1136879;-63
2022/08/10 00:57:58;;;;;;;21.07;6.28;;;;;;;17.16;67.88;101870.06;5299543;55;1136999;-63
2022/08/10 01:03:04;;;;;;;12.70;6.12;;;;;;;17.26;68.73;101866.63;5293782;55;1137043;-62
2022/08/10 01:08:21;;;;;;;19.05;5.87;;;;;;;17.42;69.04;101862.98;5275061;55;1141219;-63
2022/08/10 01:13:51;;;;;;;22.13;5.95;;;;;;;17.38;68.43;101858.90;5221535;55;1141204;-63
2022/08/10 01:19:05;;;;;;;17.27;6.05;;;;;;;17.48;68.88;101861.98;5299842;55;1141279;-61
2022/08/10 01:24:50;;;;;;;7.00;5.37;;;;;;;17.57;68.80;101863.02;5299623;54;1141068;-62
2022/08/10 01:30:08;;;;;;;12.68;4.42;;;;;;;17.62;69.00;101854.11;5298508;55;1139136;-63
2022/08/10 01:35:34;;;;;;;15.90;4.03;;;;;;;17.58;68.64;101856.69;5298451;56;1140997;-61
2022/08/10 01:40:54;;;;;;;11.90;3.47;;;;;;;17.48;68.54;101857.13;5293810;56;1141312;-64
2022/08/10 01:46:03;;;;;;;12.27;3.77;;;;;;;17.37;68.41;101862.06;5291526;55;1141203;-63
2022/08/10 01:51:25;;;;;;;4.73;3.80;;;;;;;17.31;68.48;101857.22;5302030;55;1141210;-63
2022/08/10 01:56:39;;;;;;;13.73;3.20;;;;;;;17.20;68.51;101851.94;5297805;55;1139066;-61
2022/08/10 02:01:55;;;;;;;17.65;5.33;;;;;;;17.08;68.45;101853.83;5314766;55;1139195;-62
2022/08/10 02:07:03;;;;;;;7.90;4.30;;;;;;;17.07;69.56;101849.45;5313243;55;1139038;-63
2022/08/10 02:12:13;;;;;;;10.53;3.57;;;;;;;17.16;70.25;101849.16;5291174;55;1136901;-63
2022/08/10 02:17:34;;;;;;;9.17;4.07;;;;;;;17.11;69.83;101850.05;5269740;55;1138963;-62
2022/08/10 02:22:43;;;;;;;28.93;5.53;;;;;;;17.09;70.55;101847.50;5290409;55;1137009;-62
2022/08/10 02:27:50;;;;;;;16.67;3.87;;;;;;;16.99;70.46;101844.38;5266420;54;1139296;-62
2022/08/10 02:32:58;;;;;;;14.97;4.60;;;;;;;16.90;70.74;101840.66;5260331;55;1139042;-63
2022/08/10 02:38:07;;;;;;;10.20;4.70;;;;;;;16.88;70.65;101839.45;5276708;55;1138959;-64
2022/08/10 02:43:22;;;;;;;25.20;6.50;;;;;;;16.83;70.49;101844.31;5275739;55;1139042;-62
2022/08/10 02:48:46;;;;;;;14.63;4.83;;;;;;;16.82;70.78;101843.10;5299209;55;21209;-62
2022/08/10 02:54:04;;;;;;;18.37;4.78;;;;;;;16.83;71.13;101844.31;5253544;55;1137020;-61
2022/08/10 02:59:18;;;;;;;22.27;5.07;;;;;;;16.88;71.68;101846.61;5127685;57;1141373;-62
2022/08/10 03:04:49;;;;;;;13.90;4.40;;;;;;;16.64;70.83;101853.51;5143346;56;1141657;-61
2022/08/10 03:09:56;;;;;;;7.80;4.83;;;;;;;16.44;71.55;101856.91;4762936;61;1141182;-62
2022/08/10 03:15:03;;;;;;;21.43;5.27;;;;;;;16.43;71.84;101860.06;4814271;60;1139239;-63
2022/08/10 03:20:10;;;;;;;31.13;6.20;;;;;;;16.42;72.15;101865.53;4809870;61;1141314;-63
2022/08/10 03:25:20;;;;;;;9.40;4.27;;;;;;;16.48;72.57;101860.55;4792449;60;1141204;-63
2022/08/10 03:30:26;;;;;;;15.13;5.30;;;;;;;16.44;72.18;101857.77;4775231;61;1139256;-61
2022/08/10 03:35:33;;;;;;;8.07;4.47;;;;;;;16.32;72.11;101872.59;4780408;61;1141301;-62
2022/08/10 03:40:40;;;;;;;17.37;5.13;;;;;;;16.25;72.60;101870.88;4851416;59;1139005;-63
2022/08/10 03:45:57;;;;;;;84.23;9.97;;;;;;;16.24;72.73;101874.52;4906489;59;1141246;-62
2022/08/10 03:51:03;;;;;;;22.50;5.47;;;;;;;16.23;72.79;101872.83;4840408;60;1141180;-61
2022/08/10 03:56:09;;;;;;;19.17;4.67;;;;;;;16.26;73.03;101873.92;4625422;63;1141239;-60
2022/08/10 04:01:16;;;;;;;22.10;4.97;;;;;;;16.28;73.02;101886.66;4690055;62;1141296;-62
2022/08/10 04:06:22;;;;;;;32.53;5.17;;;;;;;16.33;72.58;101880.48;4882648;60;1141163;-63
2022/08/10 04:11:28;;;;;;;17.60;5.47;;;;;;;16.18;71.84;101889.23;4860736;60;1141108;-64
2022/08/10 04:16:34;;;;;;;19.07;5.63;;;;;;;16.07;72.63;101891.02;4772896;61;1141173;-61
2022/08/10 04:21:45;;;;;;;43.00;7.67;;;;;;;15.95;72.77;101897.33;4740790;62;1141189;-65
2022/08/10 04:26:51;;;;;;;52.37;8.20;;;;;;;16.01;74.27;101888.86;4827899;61;1141464;-62
2022/08/10 04:31:57;;;;;;;49.33;7.43;;;;;;;16.09;74.29;101895.28;4827961;61;1141416;-65
2022/08/10 04:37:05;;;;;;;31.17;5.97;;;;;;;16.04;73.79;101888.11;4827785;61;1141209;-65
2022/08/10 04:42:11;;;;;;;33.90;7.33;;;;;;;16.10;74.86;101896.98;4840926;60;1141170;-64
2022/08/10 04:47:17;;;;;;;39.00;7.47;;;;;;;16.24;75.60;101905.70;4823903;61;1139403;-63
2022/08/10 04:52:23;;;;;;;19.23;5.80;;;;;;;16.36;76.21;101912.25;4867440;60;1139366;-63
2022/08/10 04:57:29;;;;;;;16.97;6.20;;;;;;;16.38;76.02;101912.13;4847128;60;1139450;-64
2022/08/10 05:02:35;;;;;;;51.00;6.83;;;;;;;16.41;76.74;101911.41;4827681;60;1139316;-64
2022/08/10 05:07:40;;;;;;;37.43;7.50;;;;;;;16.51;77.40;101918.19;4827746;61;1139165;-65
2022/08/10 05:12:46;;;;;;;154.60;11.83;;;;;;;16.61;78.11;101908.48;4829778;60;1139308;-65
2022/08/10 05:17:52;;;;;;;14.43;5.63;;;;;;;16.64;78.67;101906.08;4828523;61;1143175;-63
2022/08/10 05:22:58;;;;;;;14.93;6.53;;;;;;;16.64;79.02;101912.27;4828660;61;1139298;-66
2022/08/10 05:28:06;;;;;;;16.63;5.60;;;;;;;16.83;79.96;101913.79;4828676;61;1139182;-64
2022/08/10 05:33:12;;;;;;;16.93;5.80;;;;;;;17.08;80.70;101915.31;4829121;61;1139123;-64
2022/08/10 05:38:20;;;;;;;10.93;5.87;;;;;;;17.28;80.43;101912.78;4829270;61;1139152;-66
2022/08/10 05:43:27;;;;;;;11.87;5.60;;;;;;;17.41;81.26;101914.33;4821257;61;1139138;-65
2022/08/10 05:48:35;;;;;;;13.90;5.60;;;;;;;17.62;80.72;101914.31;4818337;61;1139502;-63
2022/08/10 05:53:40;;;;;;;21.17;6.07;;;;;;;17.76;80.71;101908.66;4851790;60;1139611;-66
2022/08/10 05:58:46;;;;;;;12.86;5.28;;;;;;;17.95;80.31;101907.93;4897355;60;1139336;-63
2022/08/10 06:03:57;;;;;;;6.57;5.70;;;;;;;18.21;80.11;101907.83;4903588;60;1139386;-64
2022/08/10 06:09:02;;;;;;;9.53;5.53;;;;;;;18.45;80.02;101914.70;4908489;60;1134804;-64
2022/08/10 06:19:36;;;;;;;28.92;4.58;;;;;;;19.00;79.14;101926.70;4904782;60;1141216;-65
2022/08/10 06:24:43;;;;;;;13.25;4.65;;;;;;;19.35;79.13;101921.28;4904681;60;1141143;-65
2022/08/10 06:29:51;;;;;;;15.75;4.78;;;;;;;19.63;77.61;101919.94;4904866;60;1141208;-65
2022/08/10 06:34:59;;;;;;;13.43;4.53;;;;;;;19.80;76.61;101922.88;4910113;60;1141084;-62
2022/08/10 06:40:06;;;;;;;16.35;5.00;;;;;;;19.96;76.00;101923.12;4904757;60;1141140;-64
2022/08/10 06:45:25;;;;;;;8.73;4.15;;;;;;;20.17;75.85;101930.45;4914833;60;1141340;-63
2022/08/10 06:50:37;;;;;;;7.53;3.83;;;;;;;20.34;74.70;101931.53;4909969;60;1139183;-64
2022/08/10 06:55:57;;;;;;;17.98;4.15;;;;;;;20.60;74.51;101926.36;4895975;60;1139140;-65
2022/08/10 07:01:06;;;;;;;102.76;10.08;;;;;;;20.87;74.32;101924.14;4915430;60;1141146;-64
2022/08/10 07:06:18;;;;;;;127.47;10.70;;;;;;;21.14;72.58;101921.38;4914769;60;1145371;-63
2022/08/10 07:11:25;;;;;;;14.07;3.77;;;;;;;21.29;72.07;101916.34;4915120;59;1145422;-63
2022/08/10 07:16:32;;;;;;;9.23;3.72;;;;;;;21.48;71.43;101912.63;4832279;61;1141106;-63
2022/08/10 07:21:41;;;;;;;10.60;4.65;;;;;;;21.60;70.88;101916.26;4908441;60;1139004;-64
2022/08/10 07:26:53;;;;;;;12.35;3.98;;;;;;;21.76;70.27;101910.99;4905972;60;1141237;-67
2022/08/10 07:32:00;;;;;;;7.67;3.37;;;;;;;;;;4904431;60;1141201;-64
2022/08/10 07:37:08;;;;;;;5.03;2.80;;;;;;;22.21;68.54;101918.52;4913940;60;818081;-62
2022/08/10 07:42:16;;;;;;;8.10;2.87;;;;;;;22.26;66.83;101913.00;4825354;61;1137207;-66
2022/08/10 07:47:39;;;;;;;5.90;2.95;;;;;;;22.37;65.53;101919.95;4904026;60;1139110;-66
2022/08/10 07:52:46;;;;;;;4.25;3.12;;;;;;;22.53;66.90;101914.63;4913371;59;1139057;-65
2022/08/10 07:57:55;;;;;;;6.05;2.65;;;;;;;22.76;65.42;101908.98;4828592;60;1139234;-64
2022/08/10 08:03:06;;;;;;;92.97;7.97;;;;;;;22.95;64.69;101917.30;4915815;59;1137040;-65
2022/08/10 08:08:14;;;;;;;7.08;3.17;;;;;;;23.17;62.56;101914.98;4792010;61;1139386;-63
2022/08/10 08:13:22;;;;;;;16.60;2.85;;;;;;;23.32;62.75;101916.84;4835981;60;1136961;-64
2022/08/10 08:18:31;;;;;;;8.13;2.52;;;;;;;23.56;60.80;101919.22;4764055;61;1139110;-63
2022/08/10 08:23:40;;;;;;;15.58;2.45;;;;;;;23.73;59.01;101918.20;4830867;60;1137272;-64
2022/08/10 08:28:47;;;;;;;3.83;2.47;;;;;;;23.99;59.67;101916.61;4836193;60;1139195;-62
2022/08/10 08:33:54;;;;;;;4.30;2.30;;;;;;;24.11;58.23;101912.55;4714845;61;1136280;-65
2022/08/10 08:39:00;;;;;;;6.75;2.55;;;;;;;24.10;58.85;101908.16;4758745;62;1137104;-66
2022/08/10 08:44:13;;;;;;;5.83;2.55;;;;;;;24.22;55.93;101909.97;4816752;61;1137169;-63
2022/08/10 08:49:38;;;;;;;7.67;2.52;;;;;;;24.31;56.48;101908.44;4793315;60;1136910;-62
2022/08/10 08:55:07;;;;;;;6.60;2.75;;;;;;;24.39;57.23;101904.87;4687053;62;1156552;-63
2022/08/10 09:00:40;;;;;;;5.30;2.47;;;;;;;24.44;55.02;101902.49;4764927;61;1139233;-63
2022/08/10 09:06:20;;;;;;;5.95;2.67;;;;;;;24.90;54.59;101887.18;4836170;60;1139062;-64
2022/08/10 09:12:02;;;;;;;12.98;2.62;;;;;;;24.90;54.59;101887.18;4835905;60;1139100;-64
2022/08/10 09:17:40;;;;;;;13.30;2.92;;;;;;;25.04;54.48;101894.55;4835945;60;1141174;-66
2022/08/10 09:22:51;;;;;;;4.87;2.27;;;;;;;24.94;53.56;101897.98;4836537;61;1141199;-66
2022/08/10 09:28:08;;;;;;;20.48;2.75;;;;;;;25.10;53.34;101889.75;4833344;61;1139182;-65
2022/08/10 09:33:18;;;;;;;9.10;2.30;;;;;;;25.05;51.92;101890.83;4797088;61;1139177;-66
2022/08/10 09:38:53;;;;;;;11.18;2.42;;;;;;;25.07;50.90;101880.63;4803202;60;1137317;-65
2022/08/10 09:44:20;;;;;;;11.70;2.47;;;;;;;25.44;52.33;101874.92;4757722;61;1139137;-66
2022/08/10 09:49:40;;;;;;;3.47;1.90;;;;;;;25.72;51.79;101875.17;4574077;64;1139165;-66
2022/08/10 09:55:07;;;;;;;9.40;2.87;;;;;;;25.69;51.62;101869.61;4577966;64;1137097;-64
2022/08/10 10:00:17;;;;;;;8.18;2.40;;;;;;;25.75;50.46;101865.33;4596578;64;1139339;-66
2022/08/10 10:05:49;;;;;;;5.65;2.72;;;;;;;25.52;49.58;101866.70;4579086;64;1139138;-65
2022/08/10 10:11:34;;;;;;;2.50;2.27;;;;;;;25.55;47.86;101863.63;4584462;63;1139121;-65
2022/08/10 10:17:09;;;;;;;12.60;2.47;;;;;;;25.53;48.88;101849.42;4588334;63;1139337;-65
2022/08/10 10:22:43;;;;;;;10.95;2.17;;;;;;;25.46;48.05;101850.69;4587632;63;1141151;-65
2022/08/10 10:28:12;;;;;;;9.65;2.67;;;;;;;25.70;49.46;101851.48;4755212;61;1141268;-66
2022/08/10 10:33:24;;;;;;;3.62;2.40;;;;;;;26.11;48.38;101847.81;4821689;61;1139069;-66
2022/08/10 10:38:39;;;;;;;9.55;2.47;;;;;;;26.22;44.59;101837.83;4773669;61;1137069;-63
2022/08/10 10:44:08;;;;;;;11.60;3.15;;;;;;;26.56;47.09;101828.56;4775538;61;1137136;-63
2022/08/10 10:49:44;;;;;;;14.10;2.25;;;;;;;26.74;46.73;101823.19;4821745;61;1139086;-65
2022/08/10 10:55:28;;;;;;;3.37;1.82;;;;;;;27.15;45.47;101818.82;4772922;61;1139019;-62
2022/08/10 11:00:48;;;;;;;7.35;2.02;;;;;;;27.07;44.13;101814.88;4797923;61;1139060;-62
2022/08/10 11:06:20;;;;;;;56.73;3.87;;;;;;;26.89;43.95;101819.38;4843707;60;1138995;-64
2022/08/10 11:11:33;;;;;;;24.70;2.98;;;;;;;27.08;44.26;101806.20;4848440;60;1141162;-62
2022/08/10 11:16:47;;;;;;;3.35;1.67;;;;;;;27.35;43.73;101805.37;4847509;60;1141061;-63
2022/08/10 11:22:16;;;;;;;8.90;2.20;;;;;;;27.65;42.54;101802.78;4847927;60;1139161;-64
2022/08/10 11:27:47;;;;;;;9.70;2.10;;;;;;;27.57;40.85;101799.40;4847201;60;1139042;-65
2022/08/10 11:33:18;;;;;;;22.10;2.70;;;;;;;27.65;42.42;101797.89;4847682;60;1139056;-64
2022/08/10 11:38:44;;;;;;;8.05;2.00;;;;;;;27.98;41.22;101797.52;4810525;60;1141337;-61
2022/08/10 11:44:14;;;;;;;4.20;1.67;;;;;;;28.26;39.44;101789.84;4848065;60;1136993;-64
2022/08/10 11:49:33;;;;;;;10.05;2.55;;;;;;;28.42;38.62;101779.06;4847949;60;1137010;-64
2022/08/10 11:54:48;;;;;;;1.47;1.22;;;;;;;28.30;39.91;101778.31;4840243;60;1139087;-63
2022/08/10 11:59:57;;;;;;;10.18;2.05;;;;;;;28.26;38.86;101785.75;4839393;61;1137001;-65
2022/08/10 12:05:10;;;;;;;1.72;1.62;;;;;;;28.09;38.85;101781.16;4769060;62;1139101;-62
2022/08/10 12:10:18;;;;;;;16.48;2.00;;;;;;;28.15;38.47;101784.92;4769755;62;1135065;-63
2022/08/10 12:15:37;;;;;;;4.62;3.10;;;;;;;28.15;38.47;101784.92;4769274;61;1136988;-64
2022/08/10 12:20:47;;;;;;;21.13;2.73;;;;;;;28.38;37.57;101770.50;4755530;62;1139279;-64
2022/08/10 12:26:06;;;;;;;10.18;2.72;;;;;;;28.26;38.98;101775.67;4759012;61;1141212;-63
2022/08/10 12:31:13;;;;;;;1.50;1.40;;;;;;;28.05;38.28;101772.24;4759180;62;1141249;-64
2022/08/10 12:36:35;;;;;;;7.85;1.57;;;;;;;27.83;37.71;101772.34;4755876;61;1139262;-63
2022/08/10 12:41:51;;;;;;;1.50;1.40;;;;;;;28.11;38.16;101760.00;4748194;62;1139294;-63
2022/08/10 12:47:16;;;;;;;9.65;1.82;;;;;;;28.19;35.91;101750.88;4698506;62;1139118;-66
2022/08/10 12:52:29;;;;;;;6.83;1.80;;;;;;;28.12;36.46;101744.52;4837544;61;1139142;-64
2022/08/10 12:57:39;;;;;;;32.20;3.35;;;;;;;28.36;35.96;101744.01;4904161;59;1139020;-65
2022/08/10 13:02:46;;;;;;;18.20;2.30;;;;;;;28.48;37.88;101742.88;4841631;61;1141133;-63
2022/08/10 13:13:24;;;;;;;36.95;3.42;;;;;;;28.61;36.24;101723.30;4743059;61;1141377;-65
2022/08/10 13:18:40;;;;;;;3.08;1.75;;;;;;;28.62;36.41;101715.45;4769488;61;1141356;-65
2022/08/10 13:24:00;;;;;;;12.53;1.85;;;;;;;28.71;35.45;101707.94;4770332;61;1139094;-63
2022/08/10 13:29:12;;;;;;;118.28;7.87;;;;;;;28.70;34.10;101702.17;4697522;62;1139119;-62
2022/08/10 13:34:24;;;;;;;35.35;4.60;;;;;;;28.79;34.89;101687.31;4797159;61;1141489;-63
2022/08/10 13:39:34;;;;;;;21.25;2.30;;;;;;;28.73;34.82;101700.37;4842740;60;1139398;-65
2022/08/10 13:44:44;;;;;;;19.50;3.40;;;;;;;28.56;35.71;101696.41;4877368;60;1139085;-63
2022/08/10 13:50:00;;;;;;;12.93;1.87;;;;;;;28.58;36.32;101691.57;4845967;60;1139207;-62
2022/08/10 13:55:12;;;;;;;5.40;2.25;;;;;;;28.79;35.85;101694.61;4843490;61;1139091;-63
2022/08/10 14:00:20;;;;;;;4.03;1.55;;;;;;;28.96;35.89;101685.00;4903487;60;1137153;-64
2022/08/10 14:05:31;;;;;;;4.45;1.77;;;;;;;29.15;36.05;101683.30;4917287;60;1137299;-65
2022/08/10 14:10:40;;;;;;;2.27;1.40;;;;;;;29.00;33.15;101671.28;4910906;59;1137197;-64
2022/08/10 14:15:50;;;;;;;95.42;5.55;;;;;;;28.80;33.71;101673.18;4924597;59;1135219;-64
2022/08/10 14:20:58;;;;;;;8.52;1.46;;;;;;;28.86;34.51;101672.34;4863932;61;1141159;-63
2022/08/10 14:26:08;;;;;;;54.60;6.08;;;;;;;28.80;34.96;101663.65;4863909;61;1139050;-63
2022/08/10 14:31:17;;;;;;;1.85;1.42;;;;;;;28.71;34.71;101658.92;4848312;61;1141121;-63
2022/08/10 14:36:27;;;;;;;12.60;1.92;;;;;;;28.55;34.93;101655.27;4792976;60;1139489;-62
2022/08/10 14:41:36;;;;;;;7.43;1.77;;;;;;;28.62;33.75;101636.50;4723204;61;1141404;-62
2022/08/10 14:46:49;;;;;;;2.67;1.10;;;;;;;28.73;34.73;101649.16;4761114;61;1139098;-63
2022/08/10 14:52:03;;;;;;;12.07;2.00;;;;;;;28.96;34.82;101650.42;4760109;61;1139234;-62
2022/08/10 14:57:11;;;;;;;10.10;1.40;;;;;;;29.01;34.10;101652.52;4789013;61;1141183;-65
2022/08/10 15:02:19;;;;;;;14.25;1.87;;;;;;;29.07;33.90;101645.36;4788791;61;1141335;-64
2022/08/10 15:07:31;;;;;;;8.68;2.05;;;;;;;29.07;31.95;101644.00;4787293;60;1141128;-62
2022/08/10 15:12:41;;;;;;;3.70;1.30;;;;;;;28.97;32.67;101640.37;4897398;60;1139245;-65
2022/08/10 15:17:56;;;;;;;8.68;2.40;;;;;;;29.07;33.76;101645.36;4880442;59;1139115;-65
2022/08/10 15:23:11;;;;;;;7.65;1.72;;;;;;;29.04;32.96;101638.45;4880493;60;1139057;-64
2022/08/10 15:28:20;;;;;;;10.38;1.57;;;;;;;28.95;33.27;101636.49;4889748;60;1139012;-62
2022/08/10 15:39:11;;;;;;;236.77;16.95;;;;;;;28.86;32.29;101626.89;4890465;60;1139055;-64
2022/08/10 15:44:17;;;;;;;8.23;1.00;;;;;;;28.78;32.88;101624.34;4882443;60;1145679;-63
2022/08/10 15:49:51;;;;;;;7.67;1.37;;;;;;;28.79;32.52;101621.97;4866609;60;1139340;-65
2022/08/10 15:55:18;;;;;;;26.95;1.80;;;;;;;28.75;30.65;101617.95;4858302;60;1136976;-65
2022/08/10 16:00:24;;;;;;;9.68;1.52;;;;;;;28.76;31.92;101621.52;4867217;60;1139007;-64
2022/08/10 16:05:41;;;;;;;11.78;1.35;;;;;;;28.68;31.49;101616.62;4865256;60;1136964;-64
2022/08/10 16:11:04;;;;;;;19.80;2.30;;;;;;;28.66;30.51;101615.15;4867109;60;1139160;-64
2022/08/10 16:16:14;;;;;;;13.50;1.40;;;;;;;28.55;31.16;101608.47;4874845;59;1137336;-64
2022/08/10 16:21:24;;;;;;;10.90;1.25;;;;;;;28.55;31.60;101619.36;4933369;59;1141227;-64
2022/08/10 16:26:34;;;;;;;6.47;1.00;;;;;;;28.63;31.50;101612.84;4941337;59;1141119;-64
2022/08/10 16:31:43;;;;;;;20.47;1.77;;;;;;;28.68;31.39;101614.42;4898253;60;1139278;-63
2022/08/10 16:36:59;;;;;;;7.97;1.42;;;;;;;28.63;30.14;101617.77;4894945;60;1141177;-64
2022/08/10 16:42:15;;;;;;;14.63;3.45;;;;;;;28.53;29.25;101619.25;4915165;59;1138952;-64
2022/08/10 16:47:24;;;;;;;10.20;1.57;;;;;;;28.30;29.72;101611.49;4935624;59;1141628;-63
2022/08/10 16:52:33;;;;;;;6.40;3.50;;;;;;;28.16;29.62;101605.70;4916825;59;1141048;-64
2022/08/10 16:57:41;;;;;;;20.70;2.65;;;;;;;28.11;30.17;101602.23;4924964;59;1139428;-64
2022/08/10 17:02:51;;;;;;;13.93;2.92;;;;;;;28.12;30.59;101597.63;4932881;59;1141130;-63
2022/08/10 17:08:12;;;;;;;9.75;1.92;;;;;;;28.12;30.45;101603.08;4919073;59;1141159;-64
2022/08/10 17:13:26;;;;;;;5.10;2.10;;;;;;;27.99;30.34;101603.38;4928969;59;1139191;-63
2022/08/10 17:18:33;;;;;;;10.40;2.00;;;;;;;27.93;30.47;101598.79;4849413;59;1139242;-64
2022/08/10 17:23:41;;;;;;;123.72;5.70;;;;;;;27.87;30.30;101598.77;4790853;60;1141198;-63
2022/08/10 17:28:50;;;;;;;22.32;3.22;;;;;;;27.75;29.99;101609.94;4786624;60;1143504;-63
2022/08/10 17:34:03;;;;;;;11.65;2.17;;;;;;;27.61;30.08;101606.34;4787695;61;1141355;-64
2022/08/10 17:39:12;;;;;;;34.63;1.80;;;;;;;27.47;30.45;101601.88;4786882;60;1141061;-65
2022/08/10 17:44:18;;;;;;;25.48;2.10;;;;;;;27.37;30.77;101606.31;4786901;60;1141069;-65
2022/08/10 17:49:25;;;;;;;30.72;2.17;;;;;;;27.30;31.01;101608.19;4787288;61;1141095;-62
2022/08/10 17:54:35;;;;;;;12.98;1.67;;;;;;;27.12;30.79;101611.95;4786756;60;1141546;-63
2022/08/10 17:59:42;;;;;;;34.40;3.12;;;;;;;27.01;31.33;101612.53;4789550;61;1141072;-63
2022/08/10 18:04:56;;;;;;;9.83;1.80;;;;;;;26.92;31.50;101610.45;4785217;60;1141225;-63
2022/08/10 18:10:05;;;;;;;26.52;2.67;;;;;;;26.77;31.63;101614.63;4710230;61;1136902;-64
2022/08/10 18:15:14;;;;;;;20.97;1.98;;;;;;;26.57;31.75;101621.30;4798226;61;1139001;-63
2022/08/10 18:20:22;;;;;;;31.07;2.37;;;;;;;26.46;32.04;101616.91;4845449;59;1139089;-63
2022/08/10 18:25:34;;;;;;;12.37;2.20;;;;;;;26.31;32.46;101618.86;4867270;60;1139043;-65
2022/08/10 18:30:52;;;;;;;43.28;3.65;;;;;;;26.17;32.49;101617.36;4802262;59;1139234;-65
2022/08/10 18:36:05;;;;;;;35.92;4.25;;;;;;;25.93;32.69;101623.19;4854894;60;1139243;-62
2022/08/10 18:41:16;;;;;;;40.63;4.78;;;;;;;25.73;33.23;101635.67;4936617;59;1139109;-63
2022/08/10 18:46:28;;;;;;;25.43;2.98;;;;;;;25.50;33.70;101633.94;4944767;60;1138977;-62
2022/08/10 18:51:38;;;;;;;47.40;4.47;;;;;;;25.31;34.42;101639.92;4901145;59;1139273;-61
2022/08/10 18:57:15;;;;;;;44.48;5.87;;;;;;;25.19;35.16;101643.63;4815346;60;1136948;-63
2022/08/10 19:02:40;;;;;;;74.75;7.28;;;;;;;25.08;36.71;101650.00;4676036;61;1141170;-64
2022/08/10 19:08:29;;;;;;;14.15;3.90;;;;;;;25.00;37.50;101644.70;4631987;62;1141175;-65
2022/08/10 19:14:06;;;;;;;16.42;1.75;;;;;;;24.77;37.35;101645.56;4736386;62;1141187;-62
2022/08/10 19:19:36;;;;;;;12.13;1.75;;;;;;;24.44;37.79;101649.08;4660909;62;1141371;-63
2022/08/10 19:25:01;;;;;;;11.63;2.10;;;;;;;24.33;38.82;101652.22;4731974;62;1141146;-62
2022/08/10 19:30:13;;;;;;;32.03;4.60;;;;;;;24.11;39.56;101657.95;4817719;61;1141170;-63
2022/08/10 19:35:55;;;;;;;31.25;10.15;;;;;;;24.04;40.57;101661.02;4792251;61;1139048;-64
2022/08/10 19:41:25;;;;;;;21.15;7.65;;;;;;;24.10;40.97;101661.67;4837112;60;1141319;-62
2022/08/10 19:46:50;;;;;;;24.60;6.37;;;;;;;24.17;41.04;101667.18;4834597;60;1139108;-63
2022/08/10 19:52:06;;;;;;;35.38;4.80;;;;;;;24.18;41.16;101659.41;4817044;60;1137132;-62
2022/08/10 19:57:20;;;;;;;23.93;4.17;;;;;;;24.08;41.57;101659.66;4840598;60;1141107;-63
2022/08/10 20:02:30;;;;;;;29.07;3.98;;;;;;;23.95;41.96;101663.46;4840481;60;1141078;-65
2022/08/10 20:08:06;;;;;;;31.68;2.75;;;;;;;23.85;42.27;101666.38;4839731;61;1141289;-62
2022/08/10 20:13:49;;;;;;;41.00;5.37;;;;;;;23.74;42.90;101668.64;4841875;60;1141144;-64
2022/08/10 20:19:01;;;;;;;41.95;6.00;;;;;;;23.51;43.29;101669.95;4873889;60;1141153;-62
2022/08/10 20:24:12;;;;;;;22.10;2.70;;;;;;;23.28;43.55;101673.03;4838825;60;1141061;-64
2022/08/10 20:29:38;;;;;;;15.65;2.55;;;;;;;23.17;43.78;101668.01;4906298;59;1141195;-64
2022/08/10 20:34:49;;;;;;;17.23;3.98;;;;;;;23.03;44.01;101668.22;4867282;60;1141400;-63
2022/08/10 20:40:26;;;;;;;17.70;3.67;;;;;;;22.89;44.44;101661.67;4957523;59;1141339;-63
2022/08/10 20:45:39;;;;;;;20.88;3.00;;;;;;;22.77;44.71;101671.11;4924527;59;1139150;-64
2022/08/10 20:50:49;;;;;;;7.37;2.77;;;;;;;22.66;44.99;101664.19;4936803;58;1139065;-64
2022/08/10 20:56:14;;;;;;;22.22;3.00;;;;;;;22.49;45.34;101671.94;4897117;59;1136944;-64
2022/08/10 21:01:53;;;;;;;7.55;1.82;;;;;;;22.36;45.83;101670.26;4826209;60;1139197;-63
2022/08/10 21:07:36;;;;;;;13.22;3.98;;;;;;;22.29;46.17;101674.66;4899890;59;1137306;-62
2022/08/10 21:13:07;;;;;;;19.07;3.15;;;;;;;21.82;46.12;101678.40;4829507;60;1141148;-63
2022/08/10 21:18:51;;;;;;;16.65;3.95;;;;;;;21.59;47.21;101678.98;4892944;59;1141243;-63
2022/08/10 21:24:01;;;;;;;12.13;2.87;;;;;;;21.57;47.72;101680.98;4911765;59;1141398;-64
2022/08/10 22:53:15;;;;;;;;;;;;;;;19.02;54.48;101687.42;4894449;59;1141160;-64
2022/08/10 22:58:40;;;;;;;23.18;5.47;;;;;;;18.94;54.69;101676.06;4799059;60;976394;-65
2022/08/10 23:03:51;;;;;;;6.28;3.67;;;;;;;19.09;55.17;101680.50;4889614;60;1139303;-63
2022/08/10 23:09:03;;;;;;;12.33;4.97;;;;;;;19.18;55.44;101678.27;4919096;59;1139100;-63
2022/08/10 23:14:12;;;;;;;14.87;5.67;;;;;;;19.09;56.46;101672.45;4921436;59;1141238;-64
2022/08/10 23:24:38;;;;;;;;;;;;;;;19.06;58.35;101683.47;4922289;59;1141153;-63
2022/08/10 23:29:50;;;;;;;12.40;2.67;;;;;;;19.22;58.66;101676.15;4965346;58;976592;-64
2022/08/10 23:34:59;;;;;;;30.15;10.23;;;;;;;19.10;58.69;101685.34;4840916;60;1139085;-63
2022/08/10 23:40:12;;;;;;;6.15;4.08;;;;;;;19.06;59.29;101684.81;4951226;59;1143171;-64
2022/08/10 23:45:22;;;;;;;;;;;;;;;19.07;59.41;101688.34;4850259;61;1139073;-64
2022/08/10 23:50:29;;;;;;;10.05;3.15;;;;;;;19.12;59.74;101686.89;4877208;60;976456;-64
2022/08/10 23:55:38;;;;;;;5.83;3.10;;;;;;;19.15;59.74;101685.27;4844759;60;1139060;-64
